sensor_id;sensor_type;location;lat;lon;timestamp;P1;durP1;ratioP1;P2;durP2;ratioP2
6791;SDS011;3433;48.730;9.108;2023-06-26T00:02:23;8.83;;;7.93;;
6791;SDS011;3433;48.730;9.108;2023-06-26T00:05:12;10.17;;;8.10;;
6791;SDS011;3433;48.730;9.108;2023-06-26T00:07:59;9.47;;;8.23;;
6791;SDS011;3433;48.730;9.108;2023-06-26T00:10:47;10.37;;;7.83;;
6791;SDS011;3433;48.730;9.108;2023-06-26T00:13:36;10.53;;;9.07;;
6791;SDS011;3433;48.730;9.108;2023-06-26T00:16:24;11.77;;;8.60;;
6791;SDS011;3433;48.730;9.108;2023-06-26T00:19:11;12.70;;;8.90;;
6791;SDS011;3433;48.730;9.108;2023-06-26T00:22:00;11.10;;;8.47;;
6791;SDS011;3433;48.730;9.108;2023-06-26T00:24:47;10.93;;;9.27;;
6791;SDS011;3433;48.730;9.108;2023-06-26T00:27:34;9.90;;;8.90;;
6791;SDS011;3433;48.730;9.108;2023-06-26T00:30:22;10.87;;;8.10;;
6791;SDS011;3433;48.730;9.108;2023-06-26T00:33:09;9.03;;;7.83;;
6791;SDS011;3433;48.730;9.108;2023-06-26T00:35:56;13.83;;;9.13;;
6791;SDS011;3433;48.730;9.108;2023-06-26T00:38:44;10.63;;;7.50;;
6791;SDS011;3433;48.730;9.108;2023-06-26T00:41:32;12.40;;;9.10;;
6791;SDS011;3433;48.730;9.108;2023-06-26T00:44:19;9.13;;;8.23;;
6791;SDS011;3433;48.730;9.108;2023-06-26T00:47:06;9.83;;;8.23;;
6791;SDS011;3433;48.730;9.108;2023-06-26T00:49:54;11.70;;;9.30;;
6791;SDS011;3433;48.730;9.108;2023-06-26T00:52:42;12.63;;;8.43;;
6791;SDS011;3433;48.730;9.108;2023-06-26T00:55:31;9.70;;;8.17;;
6791;SDS011;3433;48.730;9.108;2023-06-26T00:58:18;10.97;;;8.60;;
6791;SDS011;3433;48.730;9.108;2023-06-26T01:01:06;9.23;;;8.20;;
6791;SDS011;3433;48.730;9.108;2023-06-26T01:03:54;10.13;;;7.77;;
6791;SDS011;3433;48.730;9.108;2023-06-26T01:06:42;11.00;;;8.67;;
6791;SDS011;3433;48.730;9.108;2023-06-26T01:09:34;9.10;;;8.20;;
6791;SDS011;3433;48.730;9.108;2023-06-26T01:12:23;9.80;;;8.13;;
6791;SDS011;3433;48.730;9.108;2023-06-26T01:15:10;10.40;;;8.00;;
6791;SDS011;3433;48.730;9.108;2023-06-26T01:17:57;10.60;;;8.40;;
6791;SDS011;3433;48.730;9.108;2023-06-26T01:20:48;9.83;;;8.80;;
6791;SDS011;3433;48.730;9.108;2023-06-26T01:23:38;9.33;;;7.90;;
6791;SDS011;3433;48.730;9.108;2023-06-26T01:26:42;8.83;;;7.93;;
6791;SDS011;3433;48.730;9.108;2023-06-26T01:29:31;9.47;;;7.67;;
6791;SDS011;3433;48.730;9.108;2023-06-26T01:32:19;9.40;;;7.30;;
6791;SDS011;3433;48.730;9.108;2023-06-26T01:35:08;11.37;;;8.13;;
6791;SDS011;3433;48.730;9.108;2023-06-26T01:38:10;9.73;;;7.43;;
6791;SDS011;3433;48.730;9.108;2023-06-26T01:40:58;10.23;;;8.20;;
6791;SDS011;3433;48.730;9.108;2023-06-26T01:43:53;8.60;;;7.70;;
6791;SDS011;3433;48.730;9.108;2023-06-26T01:46:51;9.80;;;7.83;;
6791;SDS011;3433;48.730;9.108;2023-06-26T01:49:46;9.13;;;7.27;;
6791;SDS011;3433;48.730;9.108;2023-06-26T01:52:37;8.20;;;7.40;;
6791;SDS011;3433;48.730;9.108;2023-06-26T01:55:28;9.70;;;8.20;;
6791;SDS011;3433;48.730;9.108;2023-06-26T01:58:22;8.63;;;7.73;;
6791;SDS011;3433;48.730;9.108;2023-06-26T02:01:12;8.90;;;7.40;;
6791;SDS011;3433;48.730;9.108;2023-06-26T02:04:00;9.13;;;8.07;;
6791;SDS011;3433;48.730;9.108;2023-06-26T02:06:47;9.23;;;8.07;;
6791;SDS011;3433;48.730;9.108;2023-06-26T02:09:34;8.70;;;7.47;;
6791;SDS011;3433;48.730;9.108;2023-06-26T02:12:21;8.63;;;7.60;;
6791;SDS011;3433;48.730;9.108;2023-06-26T02:15:09;7.90;;;7.17;;
6791;SDS011;3433;48.730;9.108;2023-06-26T02:17:57;9.53;;;8.20;;
6791;SDS011;3433;48.730;9.108;2023-06-26T02:20:45;10.67;;;8.10;;
6791;SDS011;3433;48.730;9.108;2023-06-26T02:23:32;7.80;;;7.00;;
6791;SDS011;3433;48.730;9.108;2023-06-26T02:26:19;9.90;;;7.80;;
6791;SDS011;3433;48.730;9.108;2023-06-26T02:29:06;8.70;;;7.80;;
6791;SDS011;3433;48.730;9.108;2023-06-26T02:31:54;10.60;;;7.47;;
6791;SDS011;3433;48.730;9.108;2023-06-26T02:34:42;9.30;;;8.30;;
6791;SDS011;3433;48.730;9.108;2023-06-26T02:37:29;9.20;;;7.60;;
6791;SDS011;3433;48.730;9.108;2023-06-26T02:40:17;8.67;;;7.63;;
6791;SDS011;3433;48.730;9.108;2023-06-26T02:43:04;9.63;;;7.40;;
6791;SDS011;3433;48.730;9.108;2023-06-26T02:45:51;11.13;;;8.20;;
6791;SDS011;3433;48.730;9.108;2023-06-26T02:48:38;10.53;;;8.20;;
6791;SDS011;3433;48.730;9.108;2023-06-26T02:51:27;9.67;;;8.27;;
6791;SDS011;3433;48.730;9.108;2023-06-26T02:54:14;11.37;;;8.40;;
6791;SDS011;3433;48.730;9.108;2023-06-26T02:57:01;9.63;;;7.60;;
6791;SDS011;3433;48.730;9.108;2023-06-26T02:59:48;9.23;;;8.13;;
6791;SDS011;3433;48.730;9.108;2023-06-26T03:02:36;11.40;;;8.83;;
6791;SDS011;3433;48.730;9.108;2023-06-26T03:05:23;9.03;;;8.10;;
6791;SDS011;3433;48.730;9.108;2023-06-26T03:08:12;8.97;;;8.03;;
6791;SDS011;3433;48.730;9.108;2023-06-26T03:10:59;9.53;;;8.10;;
6791;SDS011;3433;48.730;9.108;2023-06-26T03:13:46;10.10;;;8.60;;
6791;SDS011;3433;48.730;9.108;2023-06-26T03:16:33;8.90;;;7.97;;
6791;SDS011;3433;48.730;9.108;2023-06-26T03:19:20;8.30;;;7.50;;
6791;SDS011;3433;48.730;9.108;2023-06-26T03:22:08;9.37;;;8.17;;
6791;SDS011;3433;48.730;9.108;2023-06-26T03:24:56;8.83;;;7.93;;
6791;SDS011;3433;48.730;9.108;2023-06-26T03:27:43;9.13;;;7.90;;
6791;SDS011;3433;48.730;9.108;2023-06-26T03:30:31;8.43;;;7.43;;
6791;SDS011;3433;48.730;9.108;2023-06-26T03:33:18;10.30;;;8.20;;
6791;SDS011;3433;48.730;9.108;2023-06-26T03:36:05;8.17;;;7.37;;
6791;SDS011;3433;48.730;9.108;2023-06-26T03:38:54;10.00;;;8.53;;
6791;SDS011;3433;48.730;9.108;2023-06-26T03:41:43;10.73;;;7.50;;
6791;SDS011;3433;48.730;9.108;2023-06-26T03:44:30;10.30;;;8.40;;
6791;SDS011;3433;48.730;9.108;2023-06-26T03:47:18;8.70;;;7.80;;
6791;SDS011;3433;48.730;9.108;2023-06-26T03:50:05;9.00;;;6.90;;
6791;SDS011;3433;48.730;9.108;2023-06-26T03:52:53;8.40;;;7.13;;
6791;SDS011;3433;48.730;9.108;2023-06-26T03:55:40;9.77;;;7.80;;
6791;SDS011;3433;48.730;9.108;2023-06-26T03:58:29;9.10;;;7.50;;
6791;SDS011;3433;48.730;9.108;2023-06-26T04:01:16;10.87;;;8.33;;
6791;SDS011;3433;48.730;9.108;2023-06-26T04:04:05;8.40;;;7.57;;
6791;SDS011;3433;48.730;9.108;2023-06-26T04:06:52;8.90;;;7.50;;
6791;SDS011;3433;48.730;9.108;2023-06-26T04:09:39;9.00;;;7.43;;
6791;SDS011;3433;48.730;9.108;2023-06-26T04:12:27;8.80;;;7.90;;
6791;SDS011;3433;48.730;9.108;2023-06-26T04:15:15;7.90;;;7.10;;
6791;SDS011;3433;48.730;9.108;2023-06-26T04:18:02;9.40;;;7.60;;
6791;SDS011;3433;48.730;9.108;2023-06-26T04:21:06;8.43;;;6.53;;
6791;SDS011;3433;48.730;9.108;2023-06-26T04:23:54;10.77;;;7.63;;
6791;SDS011;3433;48.730;9.108;2023-06-26T04:26:42;9.50;;;7.03;;
6791;SDS011;3433;48.730;9.108;2023-06-26T04:29:30;8.47;;;7.63;;
6791;SDS011;3433;48.730;9.108;2023-06-26T04:32:19;9.00;;;7.43;;
6791;SDS011;3433;48.730;9.108;2023-06-26T04:35:06;8.60;;;7.67;;
6791;SDS011;3433;48.730;9.108;2023-06-26T04:37:55;9.50;;;7.03;;
6791;SDS011;3433;48.730;9.108;2023-06-26T04:40:42;8.40;;;7.13;;
6791;SDS011;3433;48.730;9.108;2023-06-26T04:43:29;10.13;;;7.97;;
6791;SDS011;3433;48.730;9.108;2023-06-26T04:46:17;8.03;;;6.77;;
6791;SDS011;3433;48.730;9.108;2023-06-26T04:49:06;8.83;;;7.93;;
6791;SDS011;3433;48.730;9.108;2023-06-26T04:51:53;9.73;;;7.17;;
6791;SDS011;3433;48.730;9.108;2023-06-26T04:54:41;7.77;;;6.40;;
6791;SDS011;3433;48.730;9.108;2023-06-26T04:57:29;8.53;;;6.67;;
6791;SDS011;3433;48.730;9.108;2023-06-26T05:00:16;11.03;;;8.73;;
6791;SDS011;3433;48.730;9.108;2023-06-26T05:03:04;8.30;;;7.30;;
6791;SDS011;3433;48.730;9.108;2023-06-26T05:05:52;8.73;;;7.30;;
6791;SDS011;3433;48.730;9.108;2023-06-26T05:08:39;8.43;;;7.10;;
6791;SDS011;3433;48.730;9.108;2023-06-26T05:11:27;8.67;;;7.37;;
6791;SDS011;3433;48.730;9.108;2023-06-26T05:14:14;8.53;;;7.33;;
6791;SDS011;3433;48.730;9.108;2023-06-26T05:17:01;8.07;;;7.27;;
6791;SDS011;3433;48.730;9.108;2023-06-26T05:19:48;7.90;;;7.10;;
6791;SDS011;3433;48.730;9.108;2023-06-26T05:22:37;7.40;;;6.60;;
6791;SDS011;3433;48.730;9.108;2023-06-26T05:25:25;8.00;;;7.07;;
6791;SDS011;3433;48.730;9.108;2023-06-26T05:28:14;9.90;;;7.47;;
6791;SDS011;3433;48.730;9.108;2023-06-26T05:31:02;8.10;;;7.13;;
6791;SDS011;3433;48.730;9.108;2023-06-26T05:33:50;8.03;;;7.20;;
6791;SDS011;3433;48.730;9.108;2023-06-26T05:36:41;7.77;;;6.97;;
6791;SDS011;3433;48.730;9.108;2023-06-26T05:39:30;10.20;;;7.23;;
6791;SDS011;3433;48.730;9.108;2023-06-26T05:42:18;9.53;;;7.33;;
6791;SDS011;3433;48.730;9.108;2023-06-26T05:45:06;9.23;;;7.47;;
6791;SDS011;3433;48.730;9.108;2023-06-26T05:47:53;8.53;;;7.63;;
6791;SDS011;3433;48.730;9.108;2023-06-26T05:50:41;9.73;;;7.80;;
6791;SDS011;3433;48.730;9.108;2023-06-26T05:53:29;8.83;;;7.73;;
6791;SDS011;3433;48.730;9.108;2023-06-26T05:56:19;8.10;;;6.80;;
6791;SDS011;3433;48.730;9.108;2023-06-26T05:59:06;10.73;;;8.10;;
6791;SDS011;3433;48.730;9.108;2023-06-26T06:01:54;8.33;;;7.33;;
6791;SDS011;3433;48.730;9.108;2023-06-26T06:04:42;9.47;;;7.07;;
6791;SDS011;3433;48.730;9.108;2023-06-26T06:07:29;7.60;;;6.90;;
6791;SDS011;3433;48.730;9.108;2023-06-26T06:10:17;8.30;;;7.50;;
6791;SDS011;3433;48.730;9.108;2023-06-26T06:13:06;7.97;;;7.17;;
6791;SDS011;3433;48.730;9.108;2023-06-26T06:15:53;8.27;;;7.47;;
6791;SDS011;3433;48.730;9.108;2023-06-26T06:18:41;8.63;;;7.37;;
6791;SDS011;3433;48.730;9.108;2023-06-26T06:21:28;7.33;;;6.60;;
6791;SDS011;3433;48.730;9.108;2023-06-26T06:24:16;7.40;;;6.70;;
6791;SDS011;3433;48.730;9.108;2023-06-26T06:27:03;8.03;;;7.30;;
6791;SDS011;3433;48.730;9.108;2023-06-26T06:29:52;7.80;;;7.00;;
6791;SDS011;3433;48.730;9.108;2023-06-26T06:32:39;7.87;;;6.90;;
6791;SDS011;3433;48.730;9.108;2023-06-26T06:35:26;8.13;;;6.63;;
6791;SDS011;3433;48.730;9.108;2023-06-26T06:38:14;8.83;;;7.53;;
6791;SDS011;3433;48.730;9.108;2023-06-26T06:41:01;7.40;;;6.70;;
6791;SDS011;3433;48.730;9.108;2023-06-26T06:43:48;7.33;;;6.63;;
6791;SDS011;3433;48.730;9.108;2023-06-26T06:46:37;10.60;;;6.80;;
6791;SDS011;3433;48.730;9.108;2023-06-26T06:49:24;6.80;;;6.10;;
6791;SDS011;3433;48.730;9.108;2023-06-26T06:52:11;7.90;;;7.10;;
6791;SDS011;3433;48.730;9.108;2023-06-26T06:54:58;7.93;;;6.30;;
6791;SDS011;3433;48.730;9.108;2023-06-26T06:57:50;8.17;;;5.93;;
6791;SDS011;3433;48.730;9.108;2023-06-26T07:00:37;8.70;;;7.30;;
6791;SDS011;3433;48.730;9.108;2023-06-26T07:03:26;8.93;;;6.80;;
6791;SDS011;3433;48.730;9.108;2023-06-26T07:06:13;8.00;;;7.00;;
6791;SDS011;3433;48.730;9.108;2023-06-26T07:09:01;7.60;;;6.80;;
6791;SDS011;3433;48.730;9.108;2023-06-26T07:11:49;7.33;;;6.63;;
6791;SDS011;3433;48.730;9.108;2023-06-26T07:14:36;7.90;;;7.10;;
6791;SDS011;3433;48.730;9.108;2023-06-26T07:17:23;7.40;;;6.60;;
6791;SDS011;3433;48.730;9.108;2023-06-26T07:20:12;7.43;;;6.50;;
6791;SDS011;3433;48.730;9.108;2023-06-26T07:23:00;7.80;;;7.10;;
6791;SDS011;3433;48.730;9.108;2023-06-26T07:25:48;7.10;;;6.30;;
6791;SDS011;3433;48.730;9.108;2023-06-26T07:28:35;7.43;;;6.70;;
6791;SDS011;3433;48.730;9.108;2023-06-26T07:31:22;8.50;;;6.80;;
6791;SDS011;3433;48.730;9.108;2023-06-26T07:34:09;7.57;;;6.77;;
6791;SDS011;3433;48.730;9.108;2023-06-26T07:36:58;13.10;;;6.90;;
6791;SDS011;3433;48.730;9.108;2023-06-26T07:39:45;7.70;;;6.60;;
6791;SDS011;3433;48.730;9.108;2023-06-26T07:42:32;6.77;;;6.03;;
6791;SDS011;3433;48.730;9.108;2023-06-26T07:45:20;7.87;;;7.10;;
6791;SDS011;3433;48.730;9.108;2023-06-26T07:48:07;6.70;;;6.00;;
6791;SDS011;3433;48.730;9.108;2023-06-26T07:50:55;8.17;;;6.20;;
6791;SDS011;3433;48.730;9.108;2023-06-26T07:53:43;7.50;;;6.70;;
6791;SDS011;3433;48.730;9.108;2023-06-26T07:56:30;6.43;;;5.93;;
6791;SDS011;3433;48.730;9.108;2023-06-26T07:59:18;7.17;;;6.47;;
6791;SDS011;3433;48.730;9.108;2023-06-26T08:02:06;8.03;;;6.13;;
6791;SDS011;3433;48.730;9.108;2023-06-26T08:04:53;5.97;;;5.47;;
6791;SDS011;3433;48.730;9.108;2023-06-26T08:07:41;6.60;;;5.90;;
6791;SDS011;3433;48.730;9.108;2023-06-26T08:10:29;7.90;;;5.20;;
6791;SDS011;3433;48.730;9.108;2023-06-26T08:13:16;6.67;;;6.07;;
6791;SDS011;3433;48.730;9.108;2023-06-26T08:16:04;9.73;;;6.30;;
6791;SDS011;3433;48.730;9.108;2023-06-26T08:18:51;6.43;;;5.83;;
6791;SDS011;3433;48.730;9.108;2023-06-26T08:21:39;6.10;;;5.60;;
6791;SDS011;3433;48.730;9.108;2023-06-26T08:24:26;6.60;;;6.00;;
6791;SDS011;3433;48.730;9.108;2023-06-26T08:27:14;6.77;;;6.20;;
6791;SDS011;3433;48.730;9.108;2023-06-26T08:30:02;6.00;;;5.50;;
6791;SDS011;3433;48.730;9.108;2023-06-26T08:32:50;6.97;;;6.37;;
6791;SDS011;3433;48.730;9.108;2023-06-26T08:35:37;6.53;;;5.75;;
6791;SDS011;3433;48.730;9.108;2023-06-26T08:38:24;8.47;;;6.10;;
6791;SDS011;3433;48.730;9.108;2023-06-26T08:41:12;6.83;;;5.93;;
6791;SDS011;3433;48.730;9.108;2023-06-26T08:44:03;6.93;;;6.33;;
6791;SDS011;3433;48.730;9.108;2023-06-26T08:46:51;7.50;;;6.20;;
6791;SDS011;3433;48.730;9.108;2023-06-26T08:49:42;7.03;;;6.40;;
6791;SDS011;3433;48.730;9.108;2023-06-26T08:52:37;6.90;;;6.20;;
6791;SDS011;3433;48.730;9.108;2023-06-26T08:55:30;7.27;;;6.30;;
6791;SDS011;3433;48.730;9.108;2023-06-26T08:58:20;6.40;;;5.90;;
6791;SDS011;3433;48.730;9.108;2023-06-26T09:01:08;7.63;;;6.00;;
6791;SDS011;3433;48.730;9.108;2023-06-26T09:03:57;6.90;;;6.30;;
6791;SDS011;3433;48.730;9.108;2023-06-26T09:06:44;6.60;;;6.10;;
6791;SDS011;3433;48.730;9.108;2023-06-26T09:09:31;6.57;;;6.00;;
6791;SDS011;3433;48.730;9.108;2023-06-26T09:12:19;6.47;;;5.90;;
6791;SDS011;3433;48.730;9.108;2023-06-26T09:15:07;5.90;;;5.30;;
6791;SDS011;3433;48.730;9.108;2023-06-26T09:17:56;7.47;;;6.77;;
6791;SDS011;3433;48.730;9.108;2023-06-26T09:20:44;7.27;;;6.57;;
6791;SDS011;3433;48.730;9.108;2023-06-26T09:23:31;8.27;;;7.47;;
6791;SDS011;3433;48.730;9.108;2023-06-26T09:26:18;8.20;;;7.40;;
6791;SDS011;3433;48.730;9.108;2023-06-26T09:29:08;8.10;;;7.20;;
6791;SDS011;3433;48.730;9.108;2023-06-26T09:31:56;15.83;;;6.73;;
6791;SDS011;3433;48.730;9.108;2023-06-26T09:34:45;6.60;;;6.00;;
6791;SDS011;3433;48.730;9.108;2023-06-26T09:37:32;7.00;;;6.40;;
6791;SDS011;3433;48.730;9.108;2023-06-26T09:40:20;7.03;;;6.43;;
6791;SDS011;3433;48.730;9.108;2023-06-26T09:43:09;8.73;;;7.83;;
6791;SDS011;3433;48.730;9.108;2023-06-26T09:46:00;7.50;;;6.80;;
6791;SDS011;3433;48.730;9.108;2023-06-26T09:48:47;7.20;;;6.50;;
6791;SDS011;3433;48.730;9.108;2023-06-26T09:51:36;7.10;;;6.40;;
6791;SDS011;3433;48.730;9.108;2023-06-26T09:54:25;7.00;;;6.30;;
6791;SDS011;3433;48.730;9.108;2023-06-26T09:57:16;7.33;;;6.00;;
6791;SDS011;3433;48.730;9.108;2023-06-26T10:00:03;6.83;;;6.10;;
6791;SDS011;3433;48.730;9.108;2023-06-26T10:02:53;7.70;;;7.00;;
6791;SDS011;3433;48.730;9.108;2023-06-26T10:05:40;6.67;;;6.00;;
6791;SDS011;3433;48.730;9.108;2023-06-26T10:08:31;9.20;;;6.60;;
6791;SDS011;3433;48.730;9.108;2023-06-26T10:11:20;9.13;;;7.00;;
6791;SDS011;3433;48.730;9.108;2023-06-26T10:14:09;9.80;;;6.37;;
6791;SDS011;3433;48.730;9.108;2023-06-26T10:16:59;6.87;;;6.27;;
6791;SDS011;3433;48.730;9.108;2023-06-26T10:19:48;7.13;;;6.47;;
6791;SDS011;3433;48.730;9.108;2023-06-26T10:22:37;7.40;;;6.70;;
6791;SDS011;3433;48.730;9.108;2023-06-26T10:25:30;7.57;;;6.90;;
6791;SDS011;3433;48.730;9.108;2023-06-26T10:28:18;7.03;;;6.43;;
6791;SDS011;3433;48.730;9.108;2023-06-26T10:31:07;8.00;;;7.30;;
6791;SDS011;3433;48.730;9.108;2023-06-26T10:33:56;8.87;;;7.90;;
6791;SDS011;3433;48.730;9.108;2023-06-26T10:36:45;8.20;;;7.57;;
6791;SDS011;3433;48.730;9.108;2023-06-26T10:39:45;8.00;;;7.20;;
6791;SDS011;3433;48.730;9.108;2023-06-26T10:42:37;8.83;;;8.03;;
6791;SDS011;3433;48.730;9.108;2023-06-26T10:45:28;7.93;;;7.20;;
6791;SDS011;3433;48.730;9.108;2023-06-26T10:48:15;8.10;;;7.40;;
6791;SDS011;3433;48.730;9.108;2023-06-26T10:51:12;9.93;;;8.03;;
6791;SDS011;3433;48.730;9.108;2023-06-26T10:54:00;8.53;;;7.53;;
6791;SDS011;3433;48.730;9.108;2023-06-26T10:56:48;10.03;;;8.20;;
6791;SDS011;3433;48.730;9.108;2023-06-26T10:59:38;8.23;;;7.43;;
6791;SDS011;3433;48.730;9.108;2023-06-26T11:02:26;9.50;;;8.60;;
6791;SDS011;3433;48.730;9.108;2023-06-26T11:05:13;8.83;;;7.97;;
6791;SDS011;3433;48.730;9.108;2023-06-26T11:08:12;10.20;;;7.83;;
6791;SDS011;3433;48.730;9.108;2023-06-26T11:11:04;8.00;;;7.17;;
6791;SDS011;3433;48.730;9.108;2023-06-26T11:13:51;8.03;;;7.33;;
6791;SDS011;3433;48.730;9.108;2023-06-26T11:16:40;8.27;;;7.47;;
6791;SDS011;3433;48.730;9.108;2023-06-26T11:19:29;8.57;;;7.80;;
6791;SDS011;3433;48.730;9.108;2023-06-26T11:22:17;11.97;;;8.63;;
6791;SDS011;3433;48.730;9.108;2023-06-26T11:25:06;8.67;;;7.63;;
6791;SDS011;3433;48.730;9.108;2023-06-26T11:27:54;11.27;;;7.30;;
6791;SDS011;3433;48.730;9.108;2023-06-26T11:30:41;9.43;;;8.57;;
6791;SDS011;3433;48.730;9.108;2023-06-26T11:33:30;8.33;;;7.47;;
6791;SDS011;3433;48.730;9.108;2023-06-26T11:36:17;8.03;;;7.33;;
6791;SDS011;3433;48.730;9.108;2023-06-26T11:39:05;13.03;;;8.60;;
6791;SDS011;3433;48.730;9.108;2023-06-26T11:41:52;9.60;;;7.83;;
6791;SDS011;3433;48.730;9.108;2023-06-26T11:44:40;10.33;;;7.47;;
6791;SDS011;3433;48.730;9.108;2023-06-26T11:47:28;7.83;;;7.13;;
6791;SDS011;3433;48.730;9.108;2023-06-26T11:50:17;8.53;;;7.73;;
6791;SDS011;3433;48.730;9.108;2023-06-26T11:53:05;8.53;;;7.73;;
6791;SDS011;3433;48.730;9.108;2023-06-26T11:55:53;8.33;;;7.63;;
6791;SDS011;3433;48.730;9.108;2023-06-26T11:58:56;11.10;;;8.00;;
6791;SDS011;3433;48.730;9.108;2023-06-26T12:01:49;7.80;;;7.10;;
6791;SDS011;3433;48.730;9.108;2023-06-26T12:04:37;9.63;;;8.00;;
6791;SDS011;3433;48.730;9.108;2023-06-26T12:07:26;8.47;;;7.57;;
6791;SDS011;3433;48.730;9.108;2023-06-26T12:10:14;8.00;;;7.30;;
6791;SDS011;3433;48.730;9.108;2023-06-26T12:13:02;8.47;;;7.60;;
6791;SDS011;3433;48.730;9.108;2023-06-26T12:15:49;8.03;;;7.33;;
6791;SDS011;3433;48.730;9.108;2023-06-26T12:18:37;7.63;;;6.83;;
6791;SDS011;3433;48.730;9.108;2023-06-26T12:21:28;8.70;;;8.00;;
6791;SDS011;3433;48.730;9.108;2023-06-26T12:24:22;8.80;;;7.97;;
6791;SDS011;3433;48.730;9.108;2023-06-26T12:27:12;9.30;;;7.40;;
6791;SDS011;3433;48.730;9.108;2023-06-26T12:29:59;10.47;;;7.37;;
6791;SDS011;3433;48.730;9.108;2023-06-26T12:32:51;8.57;;;7.60;;
6791;SDS011;3433;48.730;9.108;2023-06-26T12:35:38;13.40;;;7.70;;
6791;SDS011;3433;48.730;9.108;2023-06-26T12:38:32;7.57;;;6.87;;
6791;SDS011;3433;48.730;9.108;2023-06-26T12:41:23;7.93;;;7.20;;
6791;SDS011;3433;48.730;9.108;2023-06-26T12:44:16;7.90;;;7.20;;
6791;SDS011;3433;48.730;9.108;2023-06-26T12:47:05;10.37;;;7.50;;
6791;SDS011;3433;48.730;9.108;2023-06-26T12:49:53;14.40;;;8.07;;
6791;SDS011;3433;48.730;9.108;2023-06-26T12:52:41;9.53;;;7.57;;
6791;SDS011;3433;48.730;9.108;2023-06-26T12:55:28;13.50;;;7.67;;
6791;SDS011;3433;48.730;9.108;2023-06-26T12:58:17;8.20;;;7.40;;
6791;SDS011;3433;48.730;9.108;2023-06-26T13:01:05;10.17;;;7.57;;
6791;SDS011;3433;48.730;9.108;2023-06-26T13:04:00;10.80;;;7.30;;
6791;SDS011;3433;48.730;9.108;2023-06-26T13:06:47;7.57;;;6.87;;
6791;SDS011;3433;48.730;9.108;2023-06-26T13:09:35;9.50;;;8.10;;
6791;SDS011;3433;48.730;9.108;2023-06-26T13:12:23;9.27;;;8.27;;
6791;SDS011;3433;48.730;9.108;2023-06-26T13:15:12;9.03;;;8.10;;
6791;SDS011;3433;48.730;9.108;2023-06-26T13:17:59;7.43;;;6.40;;
6791;SDS011;3433;48.730;9.108;2023-06-26T13:20:46;7.93;;;7.13;;
6791;SDS011;3433;48.730;9.108;2023-06-26T13:23:33;8.53;;;6.80;;
6791;SDS011;3433;48.730;9.108;2023-06-26T13:26:21;7.67;;;6.80;;
6791;SDS011;3433;48.730;9.108;2023-06-26T13:29:08;7.07;;;6.37;;
6791;SDS011;3433;48.730;9.108;2023-06-26T13:31:57;8.23;;;6.30;;
6791;SDS011;3433;48.730;9.108;2023-06-26T13:34:44;7.73;;;7.03;;
6791;SDS011;3433;48.730;9.108;2023-06-26T13:37:33;7.33;;;6.50;;
6791;SDS011;3433;48.730;9.108;2023-06-26T13:40:22;6.70;;;6.00;;
6791;SDS011;3433;48.730;9.108;2023-06-26T13:43:09;9.77;;;6.50;;
6791;SDS011;3433;48.730;9.108;2023-06-26T13:45:57;10.63;;;5.97;;
6791;SDS011;3433;48.730;9.108;2023-06-26T13:48:45;6.40;;;5.80;;
6791;SDS011;3433;48.730;9.108;2023-06-26T13:51:33;8.27;;;7.47;;
6791;SDS011;3433;48.730;9.108;2023-06-26T13:54:20;7.23;;;6.53;;
6791;SDS011;3433;48.730;9.108;2023-06-26T13:57:07;6.23;;;5.70;;
6791;SDS011;3433;48.730;9.108;2023-06-26T13:59:54;6.07;;;5.57;;
6791;SDS011;3433;48.730;9.108;2023-06-26T14:02:42;7.23;;;6.43;;
6791;SDS011;3433;48.730;9.108;2023-06-26T14:05:31;7.57;;;6.70;;
6791;SDS011;3433;48.730;9.108;2023-06-26T14:08:18;6.70;;;5.93;;
6791;SDS011;3433;48.730;9.108;2023-06-26T14:11:05;5.93;;;5.43;;
6791;SDS011;3433;48.730;9.108;2023-06-26T14:13:53;6.60;;;5.83;;
6791;SDS011;3433;48.730;9.108;2023-06-26T14:16:40;5.47;;;4.90;;
6791;SDS011;3433;48.730;9.108;2023-06-26T14:19:27;11.40;;;5.33;;
6791;SDS011;3433;48.730;9.108;2023-06-26T14:22:16;5.77;;;5.07;;
6791;SDS011;3433;48.730;9.108;2023-06-26T14:25:04;5.17;;;4.53;;
6791;SDS011;3433;48.730;9.108;2023-06-26T14:27:51;5.97;;;5.10;;
6791;SDS011;3433;48.730;9.108;2023-06-26T14:30:38;7.10;;;5.90;;
6791;SDS011;3433;48.730;9.108;2023-06-26T14:33:26;6.27;;;5.60;;
6791;SDS011;3433;48.730;9.108;2023-06-26T14:36:13;6.10;;;4.93;;
6791;SDS011;3433;48.730;9.108;2023-06-26T14:39:01;8.10;;;4.50;;
6791;SDS011;3433;48.730;9.108;2023-06-26T14:41:49;4.70;;;4.30;;
6791;SDS011;3433;48.730;9.108;2023-06-26T14:44:36;5.97;;;4.47;;
6791;SDS011;3433;48.730;9.108;2023-06-26T14:47:23;5.80;;;4.57;;
6791;SDS011;3433;48.730;9.108;2023-06-26T14:50:11;4.20;;;3.73;;
6791;SDS011;3433;48.730;9.108;2023-06-26T14:52:58;4.07;;;3.73;;
6791;SDS011;3433;48.730;9.108;2023-06-26T14:55:47;4.30;;;3.90;;
6791;SDS011;3433;48.730;9.108;2023-06-26T14:58:34;4.97;;;4.47;;
6791;SDS011;3433;48.730;9.108;2023-06-26T15:01:21;4.43;;;4.00;;
6791;SDS011;3433;48.730;9.108;2023-06-26T15:04:08;4.33;;;3.93;;
6791;SDS011;3433;48.730;9.108;2023-06-26T15:06:56;10.03;;;3.87;;
6791;SDS011;3433;48.730;9.108;2023-06-26T15:09:44;6.07;;;4.30;;
6791;SDS011;3433;48.730;9.108;2023-06-26T15:12:33;4.77;;;3.87;;
6791;SDS011;3433;48.730;9.108;2023-06-26T15:15:20;6.53;;;4.60;;
6791;SDS011;3433;48.730;9.108;2023-06-26T15:18:08;6.50;;;4.07;;
6791;SDS011;3433;48.730;9.108;2023-06-26T15:20:55;4.70;;;4.30;;
6791;SDS011;3433;48.730;9.108;2023-06-26T15:23:42;5.57;;;4.87;;
6791;SDS011;3433;48.730;9.108;2023-06-26T15:26:29;8.53;;;5.10;;
6791;SDS011;3433;48.730;9.108;2023-06-26T15:29:18;5.60;;;5.00;;
6791;SDS011;3433;48.730;9.108;2023-06-26T15:32:05;14.83;;;5.43;;
6791;SDS011;3433;48.730;9.108;2023-06-26T15:34:53;7.20;;;5.07;;
6791;SDS011;3433;48.730;9.108;2023-06-26T15:40:08;5.93;;;5.37;;
6791;SDS011;3433;48.730;9.108;2023-06-26T15:42:56;6.30;;;4.77;;
6791;SDS011;3433;48.730;9.108;2023-06-26T15:45:45;7.27;;;6.13;;
6791;SDS011;3433;48.730;9.108;2023-06-26T15:48:32;6.60;;;5.47;;
6791;SDS011;3433;48.730;9.108;2023-06-26T15:51:20;5.53;;;4.93;;
6791;SDS011;3433;48.730;9.108;2023-06-26T15:54:07;5.43;;;4.90;;
6791;SDS011;3433;48.730;9.108;2023-06-26T15:56:54;6.13;;;5.33;;
6791;SDS011;3433;48.730;9.108;2023-06-26T15:59:41;8.60;;;5.50;;
6791;SDS011;3433;48.730;9.108;2023-06-26T16:02:30;6.63;;;5.87;;
6791;SDS011;3433;48.730;9.108;2023-06-26T16:05:17;7.97;;;6.13;;
6791;SDS011;3433;48.730;9.108;2023-06-26T16:08:04;11.00;;;6.93;;
6791;SDS011;3433;48.730;9.108;2023-06-26T16:10:52;9.23;;;7.00;;
6791;SDS011;3433;48.730;9.108;2023-06-26T16:13:40;10.67;;;6.53;;
6791;SDS011;3433;48.730;9.108;2023-06-26T16:16:28;7.30;;;6.60;;
6791;SDS011;3433;48.730;9.108;2023-06-26T16:19:16;8.10;;;6.80;;
6791;SDS011;3433;48.730;9.108;2023-06-26T16:22:04;8.77;;;7.33;;
6791;SDS011;3433;48.730;9.108;2023-06-26T16:24:51;9.50;;;7.77;;
6791;SDS011;3433;48.730;9.108;2023-06-26T16:27:40;8.83;;;7.00;;
6791;SDS011;3433;48.730;9.108;2023-06-26T16:30:28;9.50;;;7.50;;
6791;SDS011;3433;48.730;9.108;2023-06-26T16:33:16;15.77;;;7.30;;
6791;SDS011;3433;48.730;9.108;2023-06-26T16:36:05;8.20;;;6.53;;
6791;SDS011;3433;48.730;9.108;2023-06-26T16:38:52;8.30;;;6.60;;
6791;SDS011;3433;48.730;9.108;2023-06-26T16:41:39;8.83;;;7.83;;
6791;SDS011;3433;48.730;9.108;2023-06-26T16:44:26;8.47;;;6.40;;
6791;SDS011;3433;48.730;9.108;2023-06-26T16:47:14;6.23;;;5.63;;
6791;SDS011;3433;48.730;9.108;2023-06-26T16:50:02;8.03;;;5.70;;
6791;SDS011;3433;48.730;9.108;2023-06-26T16:52:51;7.07;;;4.37;;
6791;SDS011;3433;48.730;9.108;2023-06-26T16:55:38;5.93;;;3.93;;
6791;SDS011;3433;48.730;9.108;2023-06-26T16:58:25;4.53;;;4.10;;
6791;SDS011;3433;48.730;9.108;2023-06-26T17:01:12;5.00;;;4.07;;
6791;SDS011;3433;48.730;9.108;2023-06-26T17:04:00;5.30;;;3.60;;
6791;SDS011;3433;48.730;9.108;2023-06-26T17:06:47;4.73;;;3.13;;
6791;SDS011;3433;48.730;9.108;2023-06-26T17:09:35;3.37;;;2.90;;
6791;SDS011;3433;48.730;9.108;2023-06-26T17:12:23;5.03;;;3.20;;
6791;SDS011;3433;48.730;9.108;2023-06-26T17:15:11;4.60;;;3.50;;
6791;SDS011;3433;48.730;9.108;2023-06-26T17:17:58;6.43;;;2.83;;
6791;SDS011;3433;48.730;9.108;2023-06-26T17:20:45;3.93;;;2.70;;
6791;SDS011;3433;48.730;9.108;2023-06-26T17:23:33;2.90;;;2.20;;
6791;SDS011;3433;48.730;9.108;2023-06-26T17:26:21;5.67;;;3.63;;